sensor_id;sensor_type;location;lat;lon;timestamp;temperature;humidity
3053;DHT22;1536;51.098;6.414;2022-11-27T00:02:16;9.30;99.90
3053;DHT22;1536;51.098;6.414;2022-11-27T00:04:43;9.40;99.90
3053;DHT22;1536;51.098;6.414;2022-11-27T00:07:09;9.30;99.90
3053;DHT22;1536;51.098;6.414;2022-11-27T00:09:37;9.30;99.90
3053;DHT22;1536;51.098;6.414;2022-11-27T00:12:04;9.30;99.90
3053;DHT22;1536;51.098;6.414;2022-11-27T00:14:31;9.30;99.90
3053;DHT22;1536;51.098;6.414;2022-11-27T00:16:58;9.30;99.90
3053;DHT22;1536;51.098;6.414;2022-11-27T00:19:25;9.30;99.90
3053;DHT22;1536;51.098;6.414;2022-11-27T00:21:52;9.30;99.90
3053;DHT22;1536;51.098;6.414;2022-11-27T00:24:18;9.30;99.90
3053;DHT22;1536;51.098;6.414;2022-11-27T00:26:46;9.20;99.90
3053;DHT22;1536;51.098;6.414;2022-11-27T00:29:14;9.20;99.90
3053;DHT22;1536;51.098;6.414;2022-11-27T00:31:41;9.20;99.90
3053;DHT22;1536;51.098;6.414;2022-11-27T00:34:07;9.20;99.90
3053;DHT22;1536;51.098;6.414;2022-11-27T00:36:36;9.20;99.90
3053;DHT22;1536;51.098;6.414;2022-11-27T00:39:03;9.20;99.90
3053;DHT22;1536;51.098;6.414;2022-11-27T00:41:30;9.10;99.90
3053;DHT22;1536;51.098;6.414;2022-11-27T00:43:58;9.20;99.90
3053;DHT22;1536;51.098;6.414;2022-11-27T00:46:27;9.10;99.90
3053;DHT22;1536;51.098;6.414;2022-11-27T00:48:54;9.10;99.90
3053;DHT22;1536;51.098;6.414;2022-11-27T00:51:22;9.10;99.90
3053;DHT22;1536;51.098;6.414;2022-11-27T00:53:49;9.10;99.90
3053;DHT22;1536;51.098;6.414;2022-11-27T00:56:17;9.10;99.90
3053;DHT22;1536;51.098;6.414;2022-11-27T00:58:45;9.10;99.90
3053;DHT22;1536;51.098;6.414;2022-11-27T01:01:18;9.10;99.90
3053;DHT22;1536;51.098;6.414;2022-11-27T01:03:46;9.10;99.90
3053;DHT22;1536;51.098;6.414;2022-11-27T01:06:14;9.20;99.90
3053;DHT22;1536;51.098;6.414;2022-11-27T01:08:41;9.10;99.90
3053;DHT22;1536;51.098;6.414;2022-11-27T01:11:13;9.10;99.90
3053;DHT22;1536;51.098;6.414;2022-11-27T01:13:40;9.10;99.90
3053;DHT22;1536;51.098;6.414;2022-11-27T01:16:09;9.10;99.90
3053;DHT22;1536;51.098;6.414;2022-11-27T01:18:39;9.10;99.90
3053;DHT22;1536;51.098;6.414;2022-11-27T01:21:07;9.10;99.90
3053;DHT22;1536;51.098;6.414;2022-11-27T01:23:33;9.10;99.90
3053;DHT22;1536;51.098;6.414;2022-11-27T01:26:01;9.10;99.90
3053;DHT22;1536;51.098;6.414;2022-11-27T01:28:28;9.10;99.90
3053;DHT22;1536;51.098;6.414;2022-11-27T01:30:55;9.10;99.90
3053;DHT22;1536;51.098;6.414;2022-11-27T01:33:22;9.10;99.90
3053;DHT22;1536;51.098;6.414;2022-11-27T01:35:54;9.10;99.90
3053;DHT22;1536;51.098;6.414;2022-11-27T01:38:22;9.10;99.90
3053;DHT22;1536;51.098;6.414;2022-11-27T01:40:53;9.10;99.90
3053;DHT22;1536;51.098;6.414;2022-11-27T01:43:36;9.10;99.90
3053;DHT22;1536;51.098;6.414;2022-11-27T01:46:04;9.20;99.90
3053;DHT22;1536;51.098;6.414;2022-11-27T01:48:31;9.20;99.90
3053;DHT22;1536;51.098;6.414;2022-11-27T01:50:59;9.10;99.90
3053;DHT22;1536;51.098;6.414;2022-11-27T01:53:26;9.20;99.90
3053;DHT22;1536;51.098;6.414;2022-11-27T01:55:55;9.20;99.90
3053;DHT22;1536;51.098;6.414;2022-11-27T01:58:26;9.20;99.90
3053;DHT22;1536;51.098;6.414;2022-11-27T02:00:53;9.20;99.90
3053;DHT22;1536;51.098;6.414;2022-11-27T02:03:20;9.20;99.90
3053;DHT22;1536;51.098;6.414;2022-11-27T02:05:47;9.20;99.90
3053;DHT22;1536;51.098;6.414;2022-11-27T02:08:16;9.20;99.90
3053;DHT22;1536;51.098;6.414;2022-11-27T02:10:48;9.20;99.90
3053;DHT22;1536;51.098;6.414;2022-11-27T02:13:20;9.20;99.90
3053;DHT22;1536;51.098;6.414;2022-11-27T02:15:56;9.10;99.90
3053;DHT22;1536;51.098;6.414;2022-11-27T02:18:29;9.10;99.90
3053;DHT22;1536;51.098;6.414;2022-11-27T02:21:01;9.10;99.90
3053;DHT22;1536;51.098;6.414;2022-11-27T02:24:01;9.10;99.90
3053;DHT22;1536;51.098;6.414;2022-11-27T02:26:51;9.10;99.90
3053;DHT22;1536;51.098;6.414;2022-11-27T02:29:25;9.10;99.90
3053;DHT22;1536;51.098;6.414;2022-11-27T02:31:57;9.10;99.90
3053;DHT22;1536;51.098;6.414;2022-11-27T02:34:27;9.10;99.90
3053;DHT22;1536;51.098;6.414;2022-11-27T02:37:02;9.10;99.90
3053;DHT22;1536;51.098;6.414;2022-11-27T02:39:33;9.10;99.90
3053;DHT22;1536;51.098;6.414;2022-11-27T02:42:06;9.10;99.90
3053;DHT22;1536;51.098;6.414;2022-11-27T02:44:38;9.10;99.90
3053;DHT22;1536;51.098;6.414;2022-11-27T02:47:07;9.10;99.90
3053;DHT22;1536;51.098;6.414;2022-11-27T02:49:36;9.10;99.90
3053;DHT22;1536;51.098;6.414;2022-11-27T02:52:05;9.10;99.90
3053;DHT22;1536;51.098;6.414;2022-11-27T02:54:33;9.10;99.90
3053;DHT22;1536;51.098;6.414;2022-11-27T02:57:02;9.10;99.90
3053;DHT22;1536;51.098;6.414;2022-11-27T02:59:31;9.10;99.90
3053;DHT22;1536;51.098;6.414;2022-11-27T03:02:03;9.10;99.90
3053;DHT22;1536;51.098;6.414;2022-11-27T03:04:35;9.10;99.90
3053;DHT22;1536;51.098;6.414;2022-11-27T03:07:06;9.10;99.90
3053;DHT22;1536;51.098;6.414;2022-11-27T03:09:36;9.10;99.90
3053;DHT22;1536;51.098;6.414;2022-11-27T03:12:06;9.10;99.90
3053;DHT22;1536;51.098;6.414;2022-11-27T03:14:34;9.10;99.90
3053;DHT22;1536;51.098;6.414;2022-11-27T03:17:10;9.10;99.90
3053;DHT22;1536;51.098;6.414;2022-11-27T03:19:45;9.10;99.90
3053;DHT22;1536;51.098;6.414;2022-11-27T03:22:13;9.10;99.90
3053;DHT22;1536;51.098;6.414;2022-11-27T03:24:41;9.10;99.90
3053;DHT22;1536;51.098;6.414;2022-11-27T03:27:11;9.10;99.90
3053;DHT22;1536;51.098;6.414;2022-11-27T03:29:42;9.10;99.90
3053;DHT22;1536;51.098;6.414;2022-11-27T03:32:12;9.10;99.90
3053;DHT22;1536;51.098;6.414;2022-11-27T03:34:39;9.10;99.90
3053;DHT22;1536;51.098;6.414;2022-11-27T03:37:06;9.10;99.90
3053;DHT22;1536;51.098;6.414;2022-11-27T03:39:33;9.10;99.90
3053;DHT22;1536;51.098;6.414;2022-11-27T03:42:07;9.00;99.90
3053;DHT22;1536;51.098;6.414;2022-11-27T03:44:41;9.00;99.90
3053;DHT22;1536;51.098;6.414;2022-11-27T03:47:20;9.10;99.90
3053;DHT22;1536;51.098;6.414;2022-11-27T03:52:45;9.10;99.90
3053;DHT22;1536;51.098;6.414;2022-11-27T03:55:20;9.00;99.90
3053;DHT22;1536;51.098;6.414;2022-11-27T03:57:54;9.10;99.90
3053;DHT22;1536;51.098;6.414;2022-11-27T04:00:23;9.10;99.90
3053;DHT22;1536;51.098;6.414;2022-11-27T04:02:52;9.10;99.90
3053;DHT22;1536;51.098;6.414;2022-11-27T04:05:19;9.10;99.90
3053;DHT22;1536;51.098;6.414;2022-11-27T04:07:46;9.10;99.90
3053;DHT22;1536;51.098;6.414;2022-11-27T04:10:13;9.10;99.90
3053;DHT22;1536;51.098;6.414;2022-11-27T04:12:40;9.20;99.90
3053;DHT22;1536;51.098;6.414;2022-11-27T04:15:08;9.20;99.90
3053;DHT22;1536;51.098;6.414;2022-11-27T04:17:35;9.20;99.90
3053;DHT22;1536;51.098;6.414;2022-11-27T04:20:04;9.20;99.90
3053;DHT22;1536;51.098;6.414;2022-11-27T04:22:31;9.20;99.90
3053;DHT22;1536;51.098;6.414;2022-11-27T04:27:39;9.20;99.90
3053;DHT22;1536;51.098;6.414;2022-11-27T04:30:06;9.20;99.90
3053;DHT22;1536;51.098;6.414;2022-11-27T04:32:33;9.20;99.90
3053;DHT22;1536;51.098;6.414;2022-11-27T04:35:00;9.20;99.90
3053;DHT22;1536;51.098;6.414;2022-11-27T04:37:28;9.10;99.90
3053;DHT22;1536;51.098;6.414;2022-11-27T04:39:55;9.10;99.90
3053;DHT22;1536;51.098;6.414;2022-11-27T04:42:22;9.10;99.90
3053;DHT22;1536;51.098;6.414;2022-11-27T04:44:48;9.20;99.90
3053;DHT22;1536;51.098;6.414;2022-11-27T04:47:15;9.20;99.90
3053;DHT22;1536;51.098;6.414;2022-11-27T04:49:42;9.20;99.90
3053;DHT22;1536;51.098;6.414;2022-11-27T04:52:09;9.20;99.90
3053;DHT22;1536;51.098;6.414;2022-11-27T04:54:37;9.20;99.90
3053;DHT22;1536;51.098;6.414;2022-11-27T04:57:04;9.20;99.90
3053;DHT22;1536;51.098;6.414;2022-11-27T04:59:31;9.20;99.90
3053;DHT22;1536;51.098;6.414;2022-11-27T05:01:57;9.20;99.90
3053;DHT22;1536;51.098;6.414;2022-11-27T05:04:24;9.20;99.90
3053;DHT22;1536;51.098;6.414;2022-11-27T05:06:51;9.20;99.90
3053;DHT22;1536;51.098;6.414;2022-11-27T05:09:17;9.20;99.90
3053;DHT22;1536;51.098;6.414;2022-11-27T05:11:46;9.20;99.90
3053;DHT22;1536;51.098;6.414;2022-11-27T05:14:13;9.20;99.90
3053;DHT22;1536;51.098;6.414;2022-11-27T05:16:46;9.20;99.90
3053;DHT22;1536;51.098;6.414;2022-11-27T05:19:14;9.20;99.90
3053;DHT22;1536;51.098;6.414;2022-11-27T05:21:41;9.20;99.90
3053;DHT22;1536;51.098;6.414;2022-11-27T05:24:09;9.20;99.90
3053;DHT22;1536;51.098;6.414;2022-11-27T05:26:37;9.20;99.90
3053;DHT22;1536;51.098;6.414;2022-11-27T05:29:05;9.20;99.90
3053;DHT22;1536;51.098;6.414;2022-11-27T05:31:32;9.20;99.90
3053;DHT22;1536;51.098;6.414;2022-11-27T05:33:59;9.20;99.90
3053;DHT22;1536;51.098;6.414;2022-11-27T05:36:26;9.20;99.90
3053;DHT22;1536;51.098;6.414;2022-11-27T05:38:53;9.20;99.90
3053;DHT22;1536;51.098;6.414;2022-11-27T05:41:20;9.20;99.90
3053;DHT22;1536;51.098;6.414;2022-11-27T05:43:46;9.10;99.90
3053;DHT22;1536;51.098;6.414;2022-11-27T05:46:16;9.10;99.90
3053;DHT22;1536;51.098;6.414;2022-11-27T05:48:44;9.20;99.90
3053;DHT22;1536;51.098;6.414;2022-11-27T05:51:10;9.10;99.90
3053;DHT22;1536;51.098;6.414;2022-11-27T05:53:37;9.20;99.90
3053;DHT22;1536;51.098;6.414;2022-11-27T05:56:06;9.10;99.90
3053;DHT22;1536;51.098;6.414;2022-11-27T05:58:34;9.20;99.90
3053;DHT22;1536;51.098;6.414;2022-11-27T06:01:00;9.20;99.90
3053;DHT22;1536;51.098;6.414;2022-11-27T06:03:29;9.10;99.90
3053;DHT22;1536;51.098;6.414;2022-11-27T06:05:56;9.20;99.90
3053;DHT22;1536;51.098;6.414;2022-11-27T06:08:23;9.20;99.90
3053;DHT22;1536;51.098;6.414;2022-11-27T06:10:49;9.10;99.90
3053;DHT22;1536;51.098;6.414;2022-11-27T06:13:16;9.20;99.90
3053;DHT22;1536;51.098;6.414;2022-11-27T06:15:43;9.10;99.90
3053;DHT22;1536;51.098;6.414;2022-11-27T06:18:10;9.20;99.90
3053;DHT22;1536;51.098;6.414;2022-11-27T06:20:38;9.20;99.90
3053;DHT22;1536;51.098;6.414;2022-11-27T06:23:05;9.20;99.90
3053;DHT22;1536;51.098;6.414;2022-11-27T06:25:32;9.20;99.90
3053;DHT22;1536;51.098;6.414;2022-11-27T06:27:59;9.20;99.90
3053;DHT22;1536;51.098;6.414;2022-11-27T06:30:26;9.20;99.90
3053;DHT22;1536;51.098;6.414;2022-11-27T06:32:53;9.20;99.90
3053;DHT22;1536;51.098;6.414;2022-11-27T06:35:19;9.20;99.90
3053;DHT22;1536;51.098;6.414;2022-11-27T06:37:48;9.20;99.90
3053;DHT22;1536;51.098;6.414;2022-11-27T06:40:15;9.10;99.90
3053;DHT22;1536;51.098;6.414;2022-11-27T06:42:42;9.20;99.90
3053;DHT22;1536;51.098;6.414;2022-11-27T06:45:09;9.20;99.90
3053;DHT22;1536;51.098;6.414;2022-11-27T06:47:36;9.20;99.90
3053;DHT22;1536;51.098;6.414;2022-11-27T06:50:04;9.20;99.90
3053;DHT22;1536;51.098;6.414;2022-11-27T06:52:31;9.20;99.90
3053;DHT22;1536;51.098;6.414;2022-11-27T06:54:59;9.20;99.90
3053;DHT22;1536;51.098;6.414;2022-11-27T06:57:25;9.20;99.90
3053;DHT22;1536;51.098;6.414;2022-11-27T06:59:52;9.30;99.90
3053;DHT22;1536;51.098;6.414;2022-11-27T07:02:19;9.30;99.90
3053;DHT22;1536;51.098;6.414;2022-11-27T07:04:46;9.30;99.90
3053;DHT22;1536;51.098;6.414;2022-11-27T07:07:12;9.30;99.90
3053;DHT22;1536;51.098;6.414;2022-11-27T07:09:40;9.30;99.90
3053;DHT22;1536;51.098;6.414;2022-11-27T07:12:08;9.30;99.90
3053;DHT22;1536;51.098;6.414;2022-11-27T07:14:35;9.30;99.90
3053;DHT22;1536;51.098;6.414;2022-11-27T07:17:02;9.40;99.90
3053;DHT22;1536;51.098;6.414;2022-11-27T07:19:28;9.40;99.90
3053;DHT22;1536;51.098;6.414;2022-11-27T07:21:55;9.40;99.90
3053;DHT22;1536;51.098;6.414;2022-11-27T07:24:22;9.40;99.90
3053;DHT22;1536;51.098;6.414;2022-11-27T07:26:49;9.40;99.90
3053;DHT22;1536;51.098;6.414;2022-11-27T07:29:17;9.50;99.90
3053;DHT22;1536;51.098;6.414;2022-11-27T07:31:43;9.50;99.90
3053;DHT22;1536;51.098;6.414;2022-11-27T07:34:10;9.50;99.90
3053;DHT22;1536;51.098;6.414;2022-11-27T07:36:37;9.40;99.90
3053;DHT22;1536;51.098;6.414;2022-11-27T07:39:03;9.50;99.90
3053;DHT22;1536;51.098;6.414;2022-11-27T07:41:30;9.40;99.90
3053;DHT22;1536;51.098;6.414;2022-11-27T07:43:57;9.40;99.90
3053;DHT22;1536;51.098;6.414;2022-11-27T07:46:25;9.40;99.90
3053;DHT22;1536;51.098;6.414;2022-11-27T07:48:52;9.50;99.90
3053;DHT22;1536;51.098;6.414;2022-11-27T07:51:20;9.60;99.90
3053;DHT22;1536;51.098;6.414;2022-11-27T07:53:47;9.50;99.90
3053;DHT22;1536;51.098;6.414;2022-11-27T07:56:16;9.60;99.90
3053;DHT22;1536;51.098;6.414;2022-11-27T07:58:43;9.60;99.90
3053;DHT22;1536;51.098;6.414;2022-11-27T08:01:12;9.60;99.90
3053;DHT22;1536;51.098;6.414;2022-11-27T08:03:41;9.60;99.90
3053;DHT22;1536;51.098;6.414;2022-11-27T08:06:14;9.60;99.90
3053;DHT22;1536;51.098;6.414;2022-11-27T08:08:41;9.70;99.90
3053;DHT22;1536;51.098;6.414;2022-11-27T08:11:17;9.70;99.90
3053;DHT22;1536;51.098;6.414;2022-11-27T08:13:44;9.80;99.90
3053;DHT22;1536;51.098;6.414;2022-11-27T08:16:11;9.80;99.90
3053;DHT22;1536;51.098;6.414;2022-11-27T08:18:37;9.90;99.90
3053;DHT22;1536;51.098;6.414;2022-11-27T08:21:06;9.90;99.90
3053;DHT22;1536;51.098;6.414;2022-11-27T08:23:32;9.90;99.90
3053;DHT22;1536;51.098;6.414;2022-11-27T08:25:59;10.00;99.90
3053;DHT22;1536;51.098;6.414;2022-11-27T08:28:29;10.00;99.90
3053;DHT22;1536;51.098;6.414;2022-11-27T08:30:56;10.00;99.90
3053;DHT22;1536;51.098;6.414;2022-11-27T08:33:24;10.00;99.90
3053;DHT22;1536;51.098;6.414;2022-11-27T08:35:50;10.00;99.90
3053;DHT22;1536;51.098;6.414;2022-11-27T08:38:18;10.00;99.90
3053;DHT22;1536;51.098;6.414;2022-11-27T08:40:53;10.00;99.90
3053;DHT22;1536;51.098;6.414;2022-11-27T08:43:20;10.00;99.90
3053;DHT22;1536;51.098;6.414;2022-11-27T08:45:47;10.10;99.90
3053;DHT22;1536;51.098;6.414;2022-11-27T08:48:14;10.10;99.90
3053;DHT22;1536;51.098;6.414;2022-11-27T08:50:40;10.10;99.90
3053;DHT22;1536;51.098;6.414;2022-11-27T08:53:07;10.10;99.90
3053;DHT22;1536;51.098;6.414;2022-11-27T08:55:36;10.10;99.90
3053;DHT22;1536;51.098;6.414;2022-11-27T08:58:03;10.10;99.90
3053;DHT22;1536;51.098;6.414;2022-11-27T09:00:29;10.10;99.90
3053;DHT22;1536;51.098;6.414;2022-11-27T09:02:57;10.10;99.90
3053;DHT22;1536;51.098;6.414;2022-11-27T09:05:24;10.10;99.90
3053;DHT22;1536;51.098;6.414;2022-11-27T09:07:51;10.10;99.90
3053;DHT22;1536;51.098;6.414;2022-11-27T09:10:18;10.20;99.90
3053;DHT22;1536;51.098;6.414;2022-11-27T09:12:47;10.20;99.90
3053;DHT22;1536;51.098;6.414;2022-11-27T09:15:16;10.20;99.90
3053;DHT22;1536;51.098;6.414;2022-11-27T09:17:43;10.20;99.90
3053;DHT22;1536;51.098;6.414;2022-11-27T09:20:10;10.20;99.90
3053;DHT22;1536;51.098;6.414;2022-11-27T09:22:38;10.20;99.90
3053;DHT22;1536;51.098;6.414;2022-11-27T09:25:05;10.20;99.90
3053;DHT22;1536;51.098;6.414;2022-11-27T09:27:34;10.20;99.90
3053;DHT22;1536;51.098;6.414;2022-11-27T09:30:05;10.20;99.90
3053;DHT22;1536;51.098;6.414;2022-11-27T09:32:31;10.20;99.90
3053;DHT22;1536;51.098;6.414;2022-11-27T09:34:58;10.20;99.90
3053;DHT22;1536;51.098;6.414;2022-11-27T09:37:25;10.20;99.90
3053;DHT22;1536;51.098;6.414;2022-11-27T09:39:52;10.20;99.90
3053;DHT22;1536;51.098;6.414;2022-11-27T09:42:30;10.30;99.90
3053;DHT22;1536;51.098;6.414;2022-11-27T09:45:03;10.30;99.90
3053;DHT22;1536;51.098;6.414;2022-11-27T09:47:37;10.30;99.90
3053;DHT22;1536;51.098;6.414;2022-11-27T09:50:11;10.30;99.90
3053;DHT22;1536;51.098;6.414;2022-11-27T09:52:40;10.30;99.90
3053;DHT22;1536;51.098;6.414;2022-11-27T09:55:14;10.30;99.90
3053;DHT22;1536;51.098;6.414;2022-11-27T09:57:48;10.40;99.90
3053;DHT22;1536;51.098;6.414;2022-11-27T10:00:19;10.40;99.90
3053;DHT22;1536;51.098;6.414;2022-11-27T10:02:46;10.40;99.90
3053;DHT22;1536;51.098;6.414;2022-11-27T10:05:17;10.40;99.90
3053;DHT22;1536;51.098;6.414;2022-11-27T10:08:02;10.40;99.90
3053;DHT22;1536;51.098;6.414;2022-11-27T10:10:38;10.40;99.90
3053;DHT22;1536;51.098;6.414;2022-11-27T10:13:21;10.40;99.90
3053;DHT22;1536;51.098;6.414;2022-11-27T10:16:00;10.40;99.90
3053;DHT22;1536;51.098;6.414;2022-11-27T10:18:31;10.40;99.90
3053;DHT22;1536;51.098;6.414;2022-11-27T10:21:04;10.30;99.90
3053;DHT22;1536;51.098;6.414;2022-11-27T10:23:40;10.30;99.90
3053;DHT22;1536;51.098;6.414;2022-11-27T10:26:14;10.30;99.90
3053;DHT22;1536;51.098;6.414;2022-11-27T10:28:49;10.40;99.90
3053;DHT22;1536;51.098;6.414;2022-11-27T10:31:29;10.40;99.90
3053;DHT22;1536;51.098;6.414;2022-11-27T10:34:00;10.40;99.90
3053;DHT22;1536;51.098;6.414;2022-11-27T10:36:32;10.50;99.90
3053;DHT22;1536;51.098;6.414;2022-11-27T10:39:02;10.50;99.90
3053;DHT22;1536;51.098;6.414;2022-11-27T10:41:33;10.50;99.90
3053;DHT22;1536;51.098;6.414;2022-11-27T10:44:18;10.50;99.90
3053;DHT22;1536;51.098;6.414;2022-11-27T10:46:48;10.60;99.90
3053;DHT22;1536;51.098;6.414;2022-11-27T10:49:16;10.60;99.90
3053;DHT22;1536;51.098;6.414;2022-11-27T10:51:42;10.70;99.90
3053;DHT22;1536;51.098;6.414;2022-11-27T10:54:17;10.70;99.90
3053;DHT22;1536;51.098;6.414;2022-11-27T10:57:01;10.80;99.90
3053;DHT22;1536;51.098;6.414;2022-11-27T10:59:38;10.90;99.90
3053;DHT22;1536;51.098;6.414;2022-11-27T11:02:25;10.90;99.90
3053;DHT22;1536;51.098;6.414;2022-11-27T11:04:52;11.00;99.90
3053;DHT22;1536;51.098;6.414;2022-11-27T11:07:24;11.00;99.90
3053;DHT22;1536;51.098;6.414;2022-11-27T11:09:52;11.00;99.90
3053;DHT22;1536;51.098;6.414;2022-11-27T11:12:20;11.00;99.90
3053;DHT22;1536;51.098;6.414;2022-11-27T11:14:51;11.00;99.90
3053;DHT22;1536;51.098;6.414;2022-11-27T11:17:25;11.00;99.90
3053;DHT22;1536;51.098;6.414;2022-11-27T11:19:52;11.00;99.90
3053;DHT22;1536;51.098;6.414;2022-11-27T11:22:19;11.00;99.90
3053;DHT22;1536;51.098;6.414;2022-11-27T11:24:48;11.00;99.90
3053;DHT22;1536;51.098;6.414;2022-11-27T11:27:17;11.00;99.90
3053;DHT22;1536;51.098;6.414;2022-11-27T11:29:47;11.00;99.90
3053;DHT22;1536;51.098;6.414;2022-11-27T11:32:21;11.10;99.90
3053;DHT22;1536;51.098;6.414;2022-11-27T11:34:53;11.10;99.90
3053;DHT22;1536;51.098;6.414;2022-11-27T11:37:23;11.10;99.90
3053;DHT22;1536;51.098;6.414;2022-11-27T11:39:57;11.10;99.90
3053;DHT22;1536;51.098;6.414;2022-11-27T11:42:26;11.20;99.90
3053;DHT22;1536;51.098;6.414;2022-11-27T11:44:59;11.20;99.90
3053;DHT22;1536;51.098;6.414;2022-11-27T11:47:27;11.30;99.90
3053;DHT22;1536;51.098;6.414;2022-11-27T11:49:55;11.30;99.90
3053;DHT22;1536;51.098;6.414;2022-11-27T11:52:40;11.40;99.90
3053;DHT22;1536;51.098;6.414;2022-11-27T11:55:16;11.30;99.90
3053;DHT22;1536;51.098;6.414;2022-11-27T12:01:11;11.30;99.90
3053;DHT22;1536;51.098;6.414;2022-11-27T12:03:53;11.30;99.90
3053;DHT22;1536;51.098;6.414;2022-11-27T12:06:35;11.30;99.90
3053;DHT22;1536;51.098;6.414;2022-11-27T12:09:19;11.30;99.90
3053;DHT22;1536;51.098;6.414;2022-11-27T12:11:54;11.30;99.90
3053;DHT22;1536;51.098;6.414;2022-11-27T12:14:34;11.30;99.90
3053;DHT22;1536;51.098;6.414;2022-11-27T12:17:16;11.30;99.90
3053;DHT22;1536;51.098;6.414;2022-11-27T12:19:58;11.30;99.90
3053;DHT22;1536;51.098;6.414;2022-11-27T12:22:44;11.30;99.90
3053;DHT22;1536;51.098;6.414;2022-11-27T12:25:23;11.30;99.90
3053;DHT22;1536;51.098;6.414;2022-11-27T12:28:04;11.30;99.90
3053;DHT22;1536;51.098;6.414;2022-11-27T12:30:40;11.30;99.90
3053;DHT22;1536;51.098;6.414;2022-11-27T12:33:27;11.30;99.90
3053;DHT22;1536;51.098;6.414;2022-11-27T12:36:02;11.30;99.90
3053;DHT22;1536;51.098;6.414;2022-11-27T12:38:45;11.30;99.90
3053;DHT22;1536;51.098;6.414;2022-11-27T12:41:37;11.30;99.90
3053;DHT22;1536;51.098;6.414;2022-11-27T12:44:16;11.30;99.90
3053;DHT22;1536;51.098;6.414;2022-11-27T12:46:52;11.30;99.90
3053;DHT22;1536;51.098;6.414;2022-11-27T12:49:27;11.30;99.90
3053;DHT22;1536;51.098;6.414;2022-11-27T12:51:58;11.30;99.90
3053;DHT22;1536;51.098;6.414;2022-11-27T12:54:30;11.30;99.90
3053;DHT22;1536;51.098;6.414;2022-11-27T12:57:00;11.30;99.90
3053;DHT22;1536;51.098;6.414;2022-11-27T12:59:30;11.30;99.90
3053;DHT22;1536;51.098;6.414;2022-11-27T13:02:03;11.30;99.90
3053;DHT22;1536;51.098;6.414;2022-11-27T13:04:36;11.30;99.90
3053;DHT22;1536;51.098;6.414;2022-11-27T13:07:08;11.30;99.90
3053;DHT22;1536;51.098;6.414;2022-11-27T13:09:43;11.30;99.90
3053;DHT22;1536;51.098;6.414;2022-11-27T13:12:18;11.30;99.90
3053;DHT22;1536;51.098;6.414;2022-11-27T13:14:50;11.30;99.90
3053;DHT22;1536;51.098;6.414;2022-11-27T13:17:20;11.30;99.90
3053;DHT22;1536;51.098;6.414;2022-11-27T13:19:48;11.30;99.90
3053;DHT22;1536;51.098;6.414;2022-11-27T13:22:21;11.30;99.90
3053;DHT22;1536;51.098;6.414;2022-11-27T13:24:53;11.30;99.90
3053;DHT22;1536;51.098;6.414;2022-11-27T13:27:22;11.30;99.90
3053;DHT22;1536;51.098;6.414;2022-11-27T13:29:52;11.30;99.90
3053;DHT22;1536;51.098;6.414;2022-11-27T13:32:22;11.30;99.90
3053;DHT22;1536;51.098;6.414;2022-11-27T13:34:51;11.30;99.90
3053;DHT22;1536;51.098;6.414;2022-11-27T13:37:26;11.40;99.90
3053;DHT22;1536;51.098;6.414;2022-11-27T13:40:04;11.30;99.90
3053;DHT22;1536;51.098;6.414;2022-11-27T13:42:33;11.30;99.90
3053;DHT22;1536;51.098;6.414;2022-11-27T13:45:03;11.30;99.90
3053;DHT22;1536;51.098;6.414;2022-11-27T13:47:38;11.30;99.90
3053;DHT22;1536;51.098;6.414;2022-11-27T13:50:07;11.30;99.90
3053;DHT22;1536;51.098;6.414;2022-11-27T13:52:35;11.30;99.90
3053;DHT22;1536;51.098;6.414;2022-11-27T13:55:06;11.30;99.90
3053;DHT22;1536;51.098;6.414;2022-11-27T13:57:34;11.30;99.90
3053;DHT22;1536;51.098;6.414;2022-11-27T14:00:05;11.30;99.90
3053;DHT22;1536;51.098;6.414;2022-11-27T14:02:41;11.30;99.90
3053;DHT22;1536;51.098;6.414;2022-11-27T14:05:08;11.30;99.90
3053;DHT22;1536;51.098;6.414;2022-11-27T14:07:37;11.20;99.90
3053;DHT22;1536;51.098;6.414;2022-11-27T14:10:10;11.20;99.90
3053;DHT22;1536;51.098;6.414;2022-11-27T14:12:39;11.20;99.90
3053;DHT22;1536;51.098;6.414;2022-11-27T14:15:08;11.20;99.90
3053;DHT22;1536;51.098;6.414;2022-11-27T14:17:38;11.20;99.90
3053;DHT22;1536;51.098;6.414;2022-11-27T14:20:21;11.20;99.90
3053;DHT22;1536;51.098;6.414;2022-11-27T14:22:50;11.20;99.90
3053;DHT22;1536;51.098;6.414;2022-11-27T14:25:23;11.10;99.90
3053;DHT22;1536;51.098;6.414;2022-11-27T14:27:57;11.10;99.90
3053;DHT22;1536;51.098;6.414;2022-11-27T14:30:29;11.10;99.90
3053;DHT22;1536;51.098;6.414;2022-11-27T14:32:56;11.10;99.90
3053;DHT22;1536;51.098;6.414;2022-11-27T14:35:24;11.10;99.90
3053;DHT22;1536;51.098;6.414;2022-11-27T14:37:51;11.10;99.90
3053;DHT22;1536;51.098;6.414;2022-11-27T14:40:23;11.10;99.90
3053;DHT22;1536;51.098;6.414;2022-11-27T14:42:50;11.10;99.90
3053;DHT22;1536;51.098;6.414;2022-11-27T14:45:18;11.10;99.90
3053;DHT22;1536;51.098;6.414;2022-11-27T14:47:47;11.10;99.90
3053;DHT22;1536;51.098;6.414;2022-11-27T14:50:15;11.10;99.90
3053;DHT22;1536;51.098;6.414;2022-11-27T14:52:43;11.10;99.90
3053;DHT22;1536;51.098;6.414;2022-11-27T14:55:13;11.10;99.90
3053;DHT22;1536;51.098;6.414;2022-11-27T14:57:42;11.10;99.90
3053;DHT22;1536;51.098;6.414;2022-11-27T15:00:16;11.10;99.90
3053;DHT22;1536;51.098;6.414;2022-11-27T15:02:43;11.00;99.90
3053;DHT22;1536;51.098;6.414;2022-11-27T15:05:19;11.10;99.90
3053;DHT22;1536;51.098;6.414;2022-11-27T15:07:46;11.00;99.90
3053;DHT22;1536;51.098;6.414;2022-11-27T15:10:28;11.00;99.90
3053;DHT22;1536;51.098;6.414;2022-11-27T15:12:58;11.00;99.90
3053;DHT22;1536;51.098;6.414;2022-11-27T15:15:26;11.00;99.90
3053;DHT22;1536;51.098;6.414;2022-11-27T15:17:55;11.00;99.90
3053;DHT22;1536;51.098;6.414;2022-11-27T15:20:24;10.90;99.90
3053;DHT22;1536;51.098;6.414;2022-11-27T15:22:53;10.90;99.90
3053;DHT22;1536;51.098;6.414;2022-11-27T15:25:33;10.90;99.90
3053;DHT22;1536;51.098;6.414;2022-11-27T15:28:06;10.90;99.90
3053;DHT22;1536;51.098;6.414;2022-11-27T15:30:45;10.90;99.90
3053;DHT22;1536;51.098;6.414;2022-11-27T15:33:23;10.90;99.90
3053;DHT22;1536;51.098;6.414;2022-11-27T15:35:50;10.90;99.90
3053;DHT22;1536;51.098;6.414;2022-11-27T15:38:18;10.90;99.90
3053;DHT22;1536;51.098;6.414;2022-11-27T15:40:56;10.90;99.90
3053;DHT22;1536;51.098;6.414;2022-11-27T15:43:25;10.90;99.90
3053;DHT22;1536;51.098;6.414;2022-11-27T15:45:52;10.90;99.90
3053;DHT22;1536;51.098;6.414;2022-11-27T15:48:20;10.90;99.90
3053;DHT22;1536;51.098;6.414;2022-11-27T15:50:47;10.90;99.90
3053;DHT22;1536;51.098;6.414;2022-11-27T15:53:14;10.90;99.90
3053;DHT22;1536;51.098;6.414;2022-11-27T15:55:41;10.90;99.90
3053;DHT22;1536;51.098;6.414;2022-11-27T15:58:07;10.80;99.90
3053;DHT22;1536;51.098;6.414;2022-11-27T16:00:36;10.90;99.90
3053;DHT22;1536;51.098;6.414;2022-11-27T16:03:02;10.90;99.90
3053;DHT22;1536;51.098;6.414;2022-11-27T16:05:29;10.80;99.90
3053;DHT22;1536;51.098;6.414;2022-11-27T16:07:56;10.90;99.90
3053;DHT22;1536;51.098;6.414;2022-11-27T16:10:23;10.80;99.90
3053;DHT22;1536;51.098;6.414;2022-11-27T16:12:49;10.80;99.90
3053;DHT22;1536;51.098;6.414;2022-11-27T16:15:19;10.80;99.90
3053;DHT22;1536;51.098;6.414;2022-11-27T16:17:47;10.80;99.90
3053;DHT22;1536;51.098;6.414;2022-11-27T16:20:14;10.80;99.90
3053;DHT22;1536;51.098;6.414;2022-11-27T16:22:41;10.80;99.90
3053;DHT22;1536;51.098;6.414;2022-11-27T16:25:08;10.80;99.90
3053;DHT22;1536;51.098;6.414;2022-11-27T16:27:35;10.80;99.90
3053;DHT22;1536;51.098;6.414;2022-11-27T16:30:02;10.80;99.90
3053;DHT22;1536;51.098;6.414;2022-11-27T16:32:29;10.80;99.90
3053;DHT22;1536;51.098;6.414;2022-11-27T16:34:57;10.80;99.90
3053;DHT22;1536;51.098;6.414;2022-11-27T16:37:24;10.80;99.90